sensor_id;sensor_type;location;lat;lon;timestamp;temperature;humidity
15947;DHT22;8072;52.554;7.966;2022-10-26T00:01:05;10.20;99.90
15947;DHT22;8072;52.554;7.966;2022-10-26T00:03:33;10.30;99.90
15947;DHT22;8072;52.554;7.966;2022-10-26T00:08:36;10.30;99.90
15947;DHT22;8072;52.554;7.966;2022-10-26T00:11:02;10.30;99.90
15947;DHT22;8072;52.554;7.966;2022-10-26T00:13:28;10.30;99.90
15947;DHT22;8072;52.554;7.966;2022-10-26T00:15:54;10.30;99.90
15947;DHT22;8072;52.554;7.966;2022-10-26T00:18:20;10.30;99.90
15947;DHT22;8072;52.554;7.966;2022-10-26T00:20:46;10.30;99.90
15947;DHT22;8072;52.554;7.966;2022-10-26T00:23:11;10.30;99.90
15947;DHT22;8072;52.554;7.966;2022-10-26T00:25:37;10.30;99.90
15947;DHT22;8072;52.554;7.966;2022-10-26T00:28:03;10.30;99.90
15947;DHT22;8072;52.554;7.966;2022-10-26T00:30:28;10.30;99.90
15947;DHT22;8072;52.554;7.966;2022-10-26T00:32:54;10.30;99.90
15947;DHT22;8072;52.554;7.966;2022-10-26T00:35:20;10.30;99.90
15947;DHT22;8072;52.554;7.966;2022-10-26T00:37:46;10.30;99.90
15947;DHT22;8072;52.554;7.966;2022-10-26T00:40:11;10.30;99.90
15947;DHT22;8072;52.554;7.966;2022-10-26T00:42:37;10.20;99.90
15947;DHT22;8072;52.554;7.966;2022-10-26T00:45:20;10.30;99.90
15947;DHT22;8072;52.554;7.966;2022-10-26T00:47:55;10.20;99.90
15947;DHT22;8072;52.554;7.966;2022-10-26T00:50:27;10.20;99.90
15947;DHT22;8072;52.554;7.966;2022-10-26T00:52:57;10.20;99.90
15947;DHT22;8072;52.554;7.966;2022-10-26T00:55:29;10.10;99.90
15947;DHT22;8072;52.554;7.966;2022-10-26T00:57:56;10.10;99.90
15947;DHT22;8072;52.554;7.966;2022-10-26T01:00:23;10.10;99.90
15947;DHT22;8072;52.554;7.966;2022-10-26T01:02:51;10.10;99.90
15947;DHT22;8072;52.554;7.966;2022-10-26T01:05:19;10.00;99.90
15947;DHT22;8072;52.554;7.966;2022-10-26T01:07:46;10.00;99.90
15947;DHT22;8072;52.554;7.966;2022-10-26T01:10:13;10.00;99.90
15947;DHT22;8072;52.554;7.966;2022-10-26T01:12:39;10.00;99.90
15947;DHT22;8072;52.554;7.966;2022-10-26T01:15:06;10.00;99.90
15947;DHT22;8072;52.554;7.966;2022-10-26T01:18:09;10.00;99.90
15947;DHT22;8072;52.554;7.966;2022-10-26T01:31:58;10.00;99.90
15947;DHT22;8072;52.554;7.966;2022-10-26T01:36:57;10.00;99.90
15947;DHT22;8072;52.554;7.966;2022-10-26T01:42:00;10.00;99.90
15947;DHT22;8072;52.554;7.966;2022-10-26T01:44:45;9.90;99.90
15947;DHT22;8072;52.554;7.966;2022-10-26T01:47:14;9.90;99.90
15947;DHT22;8072;52.554;7.966;2022-10-26T01:49:43;9.90;99.90
15947;DHT22;8072;52.554;7.966;2022-10-26T01:52:11;9.90;99.90
15947;DHT22;8072;52.554;7.966;2022-10-26T01:54:37;9.90;99.90
15947;DHT22;8072;52.554;7.966;2022-10-26T01:57:05;9.80;99.90
15947;DHT22;8072;52.554;7.966;2022-10-26T01:59:45;9.80;99.90
15947;DHT22;8072;52.554;7.966;2022-10-26T02:04:59;9.80;99.90
15947;DHT22;8072;52.554;7.966;2022-10-26T02:20:51;9.70;99.90
15947;DHT22;8072;52.554;7.966;2022-10-26T02:23:19;9.70;99.90
15947;DHT22;8072;52.554;7.966;2022-10-26T02:25:49;9.70;99.90
15947;DHT22;8072;52.554;7.966;2022-10-26T02:28:24;9.70;99.90
15947;DHT22;8072;52.554;7.966;2022-10-26T02:30:54;9.70;99.90
15947;DHT22;8072;52.554;7.966;2022-10-26T02:33:22;9.70;99.90
15947;DHT22;8072;52.554;7.966;2022-10-26T02:35:51;9.70;99.90
15947;DHT22;8072;52.554;7.966;2022-10-26T02:38:19;9.80;99.90
15947;DHT22;8072;52.554;7.966;2022-10-26T02:40:47;9.80;99.90
15947;DHT22;8072;52.554;7.966;2022-10-26T02:43:15;9.70;99.90
15947;DHT22;8072;52.554;7.966;2022-10-26T02:45:50;9.80;99.90
15947;DHT22;8072;52.554;7.966;2022-10-26T02:48:18;9.70;99.90
15947;DHT22;8072;52.554;7.966;2022-10-26T02:53:31;9.70;99.90
15947;DHT22;8072;52.554;7.966;2022-10-26T02:56:05;9.70;99.90
15947;DHT22;8072;52.554;7.966;2022-10-26T02:58:38;9.60;99.90
15947;DHT22;8072;52.554;7.966;2022-10-26T03:01:06;9.60;99.90
15947;DHT22;8072;52.554;7.966;2022-10-26T03:03:32;9.60;99.90
15947;DHT22;8072;52.554;7.966;2022-10-26T03:05:58;9.60;99.90
15947;DHT22;8072;52.554;7.966;2022-10-26T03:08:24;9.60;99.90
15947;DHT22;8072;52.554;7.966;2022-10-26T03:10:49;9.60;99.90
15947;DHT22;8072;52.554;7.966;2022-10-26T03:13:15;9.50;99.90
15947;DHT22;8072;52.554;7.966;2022-10-26T03:15:41;9.50;99.90
15947;DHT22;8072;52.554;7.966;2022-10-26T03:18:07;9.50;99.90
15947;DHT22;8072;52.554;7.966;2022-10-26T03:20:33;9.50;99.90
15947;DHT22;8072;52.554;7.966;2022-10-26T03:22:58;9.50;99.90
15947;DHT22;8072;52.554;7.966;2022-10-26T03:25:25;9.50;99.90
15947;DHT22;8072;52.554;7.966;2022-10-26T03:27:58;9.60;99.90
15947;DHT22;8072;52.554;7.966;2022-10-26T03:30:25;9.50;99.90
15947;DHT22;8072;52.554;7.966;2022-10-26T03:32:51;9.50;99.90
15947;DHT22;8072;52.554;7.966;2022-10-26T03:35:17;9.50;99.90
15947;DHT22;8072;52.554;7.966;2022-10-26T03:37:43;9.50;99.90
15947;DHT22;8072;52.554;7.966;2022-10-26T03:40:09;9.50;99.90
15947;DHT22;8072;52.554;7.966;2022-10-26T03:42:35;9.50;99.90
15947;DHT22;8072;52.554;7.966;2022-10-26T03:45:02;9.50;99.90
15947;DHT22;8072;52.554;7.966;2022-10-26T03:47:28;9.50;99.90
15947;DHT22;8072;52.554;7.966;2022-10-26T03:49:53;9.50;99.90
15947;DHT22;8072;52.554;7.966;2022-10-26T03:52:19;9.50;99.90
15947;DHT22;8072;52.554;7.966;2022-10-26T03:54:45;9.50;99.90
15947;DHT22;8072;52.554;7.966;2022-10-26T03:57:10;9.50;99.90
15947;DHT22;8072;52.554;7.966;2022-10-26T03:59:39;9.50;99.90
15947;DHT22;8072;52.554;7.966;2022-10-26T04:02:05;9.40;99.90
15947;DHT22;8072;52.554;7.966;2022-10-26T04:04:31;9.40;99.90
15947;DHT22;8072;52.554;7.966;2022-10-26T04:06:56;9.40;99.90
15947;DHT22;8072;52.554;7.966;2022-10-26T04:09:23;9.40;99.90
15947;DHT22;8072;52.554;7.966;2022-10-26T04:11:49;9.40;99.90
15947;DHT22;8072;52.554;7.966;2022-10-26T04:14:15;9.40;99.90
15947;DHT22;8072;52.554;7.966;2022-10-26T04:16:41;9.40;99.90
15947;DHT22;8072;52.554;7.966;2022-10-26T04:19:11;9.40;99.90
15947;DHT22;8072;52.554;7.966;2022-10-26T04:21:36;9.40;99.90
15947;DHT22;8072;52.554;7.966;2022-10-26T04:24:02;9.40;99.90
15947;DHT22;8072;52.554;7.966;2022-10-26T04:26:28;9.40;99.90
15947;DHT22;8072;52.554;7.966;2022-10-26T04:28:54;9.40;99.90
15947;DHT22;8072;52.554;7.966;2022-10-26T04:31:20;9.40;99.90
15947;DHT22;8072;52.554;7.966;2022-10-26T04:33:45;9.50;99.90
15947;DHT22;8072;52.554;7.966;2022-10-26T04:36:11;9.40;99.90
15947;DHT22;8072;52.554;7.966;2022-10-26T04:38:37;9.40;99.90
15947;DHT22;8072;52.554;7.966;2022-10-26T04:41:02;9.40;99.90
15947;DHT22;8072;52.554;7.966;2022-10-26T04:43:28;9.40;99.90
15947;DHT22;8072;52.554;7.966;2022-10-26T04:45:55;9.40;99.90
15947;DHT22;8072;52.554;7.966;2022-10-26T04:48:21;9.40;99.90
15947;DHT22;8072;52.554;7.966;2022-10-26T04:50:46;9.40;99.90
15947;DHT22;8072;52.554;7.966;2022-10-26T04:53:12;9.40;99.90
15947;DHT22;8072;52.554;7.966;2022-10-26T04:55:38;9.30;99.90
15947;DHT22;8072;52.554;7.966;2022-10-26T04:58:04;9.30;99.90
15947;DHT22;8072;52.554;7.966;2022-10-26T05:00:30;9.30;99.90
15947;DHT22;8072;52.554;7.966;2022-10-26T05:03:01;9.30;99.90
15947;DHT22;8072;52.554;7.966;2022-10-26T05:05:29;9.30;99.90
15947;DHT22;8072;52.554;7.966;2022-10-26T05:07:55;9.30;99.90
15947;DHT22;8072;52.554;7.966;2022-10-26T05:10:22;9.30;99.90
15947;DHT22;8072;52.554;7.966;2022-10-26T05:12:52;9.30;99.90
15947;DHT22;8072;52.554;7.966;2022-10-26T05:15:18;9.30;99.90
15947;DHT22;8072;52.554;7.966;2022-10-26T05:17:45;9.30;99.90
15947;DHT22;8072;52.554;7.966;2022-10-26T05:20:11;9.30;99.90
15947;DHT22;8072;52.554;7.966;2022-10-26T05:22:39;9.30;99.90
15947;DHT22;8072;52.554;7.966;2022-10-26T05:25:05;9.40;99.90
15947;DHT22;8072;52.554;7.966;2022-10-26T05:27:31;9.40;99.90
15947;DHT22;8072;52.554;7.966;2022-10-26T05:29:56;9.40;99.90
15947;DHT22;8072;52.554;7.966;2022-10-26T05:32:22;9.40;99.90
15947;DHT22;8072;52.554;7.966;2022-10-26T05:34:48;9.40;99.90
15947;DHT22;8072;52.554;7.966;2022-10-26T05:37:14;9.40;99.90
15947;DHT22;8072;52.554;7.966;2022-10-26T05:39:39;9.40;99.90
15947;DHT22;8072;52.554;7.966;2022-10-26T05:42:05;9.40;99.90
15947;DHT22;8072;52.554;7.966;2022-10-26T05:44:31;9.40;99.90
15947;DHT22;8072;52.554;7.966;2022-10-26T05:46:57;9.40;99.90
15947;DHT22;8072;52.554;7.966;2022-10-26T05:49:22;9.40;99.90
15947;DHT22;8072;52.554;7.966;2022-10-26T05:51:48;9.40;99.90
15947;DHT22;8072;52.554;7.966;2022-10-26T05:54:14;9.40;99.90
15947;DHT22;8072;52.554;7.966;2022-10-26T05:56:40;9.40;99.90
15947;DHT22;8072;52.554;7.966;2022-10-26T05:59:11;9.40;99.90
15947;DHT22;8072;52.554;7.966;2022-10-26T06:06:53;9.40;99.90
15947;DHT22;8072;52.554;7.966;2022-10-26T06:09:19;9.40;99.90
15947;DHT22;8072;52.554;7.966;2022-10-26T06:11:45;9.40;99.90
15947;DHT22;8072;52.554;7.966;2022-10-26T06:14:11;9.40;99.90
15947;DHT22;8072;52.554;7.966;2022-10-26T06:28:15;9.40;99.90
15947;DHT22;8072;52.554;7.966;2022-10-26T06:30:39;9.40;99.90
15947;DHT22;8072;52.554;7.966;2022-10-26T06:33:06;9.40;99.90
15947;DHT22;8072;52.554;7.966;2022-10-26T06:35:41;9.40;99.90
15947;DHT22;8072;52.554;7.966;2022-10-26T06:38:16;9.50;99.90
15947;DHT22;8072;52.554;7.966;2022-10-26T06:40:44;9.50;99.90
15947;DHT22;8072;52.554;7.966;2022-10-26T06:43:15;9.50;99.90
15947;DHT22;8072;52.554;7.966;2022-10-26T06:45:45;9.50;99.90
15947;DHT22;8072;52.554;7.966;2022-10-26T06:48:17;9.50;99.90
15947;DHT22;8072;52.554;7.966;2022-10-26T06:50:51;9.50;99.90
15947;DHT22;8072;52.554;7.966;2022-10-26T06:53:29;9.60;99.90
15947;DHT22;8072;52.554;7.966;2022-10-26T06:55:57;9.60;99.90
15947;DHT22;8072;52.554;7.966;2022-10-26T06:58:26;9.70;99.90
15947;DHT22;8072;52.554;7.966;2022-10-26T07:00:54;9.70;99.90
15947;DHT22;8072;52.554;7.966;2022-10-26T07:03:20;9.70;99.90
15947;DHT22;8072;52.554;7.966;2022-10-26T07:05:47;9.70;99.90
15947;DHT22;8072;52.554;7.966;2022-10-26T07:08:13;9.80;99.90
15947;DHT22;8072;52.554;7.966;2022-10-26T07:10:39;9.80;99.90
15947;DHT22;8072;52.554;7.966;2022-10-26T07:13:05;9.90;99.90
15947;DHT22;8072;52.554;7.966;2022-10-26T07:15:32;9.90;99.90
15947;DHT22;8072;52.554;7.966;2022-10-26T07:17:57;9.90;99.90
15947;DHT22;8072;52.554;7.966;2022-10-26T07:20:23;10.00;99.90
15947;DHT22;8072;52.554;7.966;2022-10-26T07:22:55;10.00;99.90
15947;DHT22;8072;52.554;7.966;2022-10-26T07:25:22;10.10;99.90
15947;DHT22;8072;52.554;7.966;2022-10-26T07:27:48;10.10;99.90
15947;DHT22;8072;52.554;7.966;2022-10-26T07:30:14;10.20;99.90
15947;DHT22;8072;52.554;7.966;2022-10-26T07:32:40;10.20;99.90
15947;DHT22;8072;52.554;7.966;2022-10-26T07:35:06;10.30;99.90
15947;DHT22;8072;52.554;7.966;2022-10-26T07:37:32;10.30;99.90
15947;DHT22;8072;52.554;7.966;2022-10-26T07:39:57;10.40;99.90
15947;DHT22;8072;52.554;7.966;2022-10-26T07:42:23;10.40;99.90
15947;DHT22;8072;52.554;7.966;2022-10-26T07:44:49;10.40;99.90
15947;DHT22;8072;52.554;7.966;2022-10-26T07:47:15;10.40;99.90
15947;DHT22;8072;52.554;7.966;2022-10-26T07:49:40;10.50;99.90
15947;DHT22;8072;52.554;7.966;2022-10-26T07:52:07;10.50;99.90
15947;DHT22;8072;52.554;7.966;2022-10-26T07:54:33;10.60;99.90
15947;DHT22;8072;52.554;7.966;2022-10-26T07:56:59;10.60;99.90
15947;DHT22;8072;52.554;7.966;2022-10-26T07:59:25;10.60;99.90
15947;DHT22;8072;52.554;7.966;2022-10-26T08:01:51;10.70;99.90
15947;DHT22;8072;52.554;7.966;2022-10-26T08:04:17;10.70;99.90
15947;DHT22;8072;52.554;7.966;2022-10-26T08:06:43;10.70;99.90
15947;DHT22;8072;52.554;7.966;2022-10-26T08:09:08;10.80;99.90
15947;DHT22;8072;52.554;7.966;2022-10-26T08:11:34;10.80;99.90
15947;DHT22;8072;52.554;7.966;2022-10-26T08:14:02;10.80;99.90
15947;DHT22;8072;52.554;7.966;2022-10-26T08:16:27;10.90;99.90
15947;DHT22;8072;52.554;7.966;2022-10-26T08:18:53;10.90;99.90
15947;DHT22;8072;52.554;7.966;2022-10-26T08:21:19;11.00;99.90
15947;DHT22;8072;52.554;7.966;2022-10-26T08:23:45;11.00;99.90
15947;DHT22;8072;52.554;7.966;2022-10-26T08:26:11;11.10;99.90
15947;DHT22;8072;52.554;7.966;2022-10-26T08:28:37;11.10;99.90
15947;DHT22;8072;52.554;7.966;2022-10-26T08:31:04;11.20;99.90
15947;DHT22;8072;52.554;7.966;2022-10-26T08:33:30;11.30;99.90
15947;DHT22;8072;52.554;7.966;2022-10-26T08:35:56;11.40;99.90
15947;DHT22;8072;52.554;7.966;2022-10-26T08:38:22;11.40;99.90
15947;DHT22;8072;52.554;7.966;2022-10-26T08:40:48;11.50;99.90
15947;DHT22;8072;52.554;7.966;2022-10-26T08:43:21;11.60;99.90
15947;DHT22;8072;52.554;7.966;2022-10-26T08:48:24;11.80;99.90
15947;DHT22;8072;52.554;7.966;2022-10-26T08:50:54;11.80;99.90
15947;DHT22;8072;52.554;7.966;2022-10-26T08:53:23;11.90;99.90
15947;DHT22;8072;52.554;7.966;2022-10-26T08:56:03;12.00;99.90
15947;DHT22;8072;52.554;7.966;2022-10-26T08:59:08;12.10;99.90
15947;DHT22;8072;52.554;7.966;2022-10-26T09:01:36;12.10;99.90
15947;DHT22;8072;52.554;7.966;2022-10-26T09:04:02;12.20;99.90
15947;DHT22;8072;52.554;7.966;2022-10-26T09:06:54;12.30;99.90
15947;DHT22;8072;52.554;7.966;2022-10-26T09:12:18;12.30;99.90
15947;DHT22;8072;52.554;7.966;2022-10-26T09:26:01;12.50;99.90
15947;DHT22;8072;52.554;7.966;2022-10-26T09:28:36;12.60;99.90
15947;DHT22;8072;52.554;7.966;2022-10-26T09:31:03;12.60;99.90
15947;DHT22;8072;52.554;7.966;2022-10-26T09:33:34;12.60;99.90
15947;DHT22;8072;52.554;7.966;2022-10-26T09:36:20;12.70;99.90
15947;DHT22;8072;52.554;7.966;2022-10-26T09:39:03;12.80;99.90
15947;DHT22;8072;52.554;7.966;2022-10-26T09:41:41;12.80;99.90
15947;DHT22;8072;52.554;7.966;2022-10-26T09:44:20;12.90;99.90
15947;DHT22;8072;52.554;7.966;2022-10-26T09:49:42;13.00;99.90
15947;DHT22;8072;52.554;7.966;2022-10-26T09:52:09;13.00;99.90
15947;DHT22;8072;52.554;7.966;2022-10-26T09:54:35;13.10;99.90
15947;DHT22;8072;52.554;7.966;2022-10-26T09:57:01;13.20;99.90
15947;DHT22;8072;52.554;7.966;2022-10-26T09:59:29;13.20;99.90
15947;DHT22;8072;52.554;7.966;2022-10-26T10:01:58;13.30;99.90
15947;DHT22;8072;52.554;7.966;2022-10-26T10:04:23;13.30;99.90
15947;DHT22;8072;52.554;7.966;2022-10-26T10:07:11;13.40;99.90
15947;DHT22;8072;52.554;7.966;2022-10-26T10:09:37;13.50;99.90
15947;DHT22;8072;52.554;7.966;2022-10-26T10:12:03;13.70;99.90
15947;DHT22;8072;52.554;7.966;2022-10-26T10:14:40;13.90;99.90
15947;DHT22;8072;52.554;7.966;2022-10-26T10:17:20;14.10;99.90
15947;DHT22;8072;52.554;7.966;2022-10-26T10:19:47;14.30;99.90
15947;DHT22;8072;52.554;7.966;2022-10-26T10:24:41;14.60;99.90
15947;DHT22;8072;52.554;7.966;2022-10-26T10:29:47;15.00;99.90
15947;DHT22;8072;52.554;7.966;2022-10-26T10:32:19;15.10;99.90
15947;DHT22;8072;52.554;7.966;2022-10-26T10:34:50;15.30;99.90
15947;DHT22;8072;52.554;7.966;2022-10-26T10:42:44;15.80;99.90
15947;DHT22;8072;52.554;7.966;2022-10-26T10:45:23;16.00;99.90
15947;DHT22;8072;52.554;7.966;2022-10-26T10:50:29;16.30;99.90
15947;DHT22;8072;52.554;7.966;2022-10-26T10:53:35;16.50;99.90
15947;DHT22;8072;52.554;7.966;2022-10-26T11:01:30;17.00;99.90
15947;DHT22;8072;52.554;7.966;2022-10-26T11:07:02;17.30;99.90
15947;DHT22;8072;52.554;7.966;2022-10-26T11:09:32;17.40;99.90
15947;DHT22;8072;52.554;7.966;2022-10-26T11:12:10;17.50;99.90
15947;DHT22;8072;52.554;7.966;2022-10-26T11:14:41;17.70;99.90
15947;DHT22;8072;52.554;7.966;2022-10-26T11:20:15;18.20;99.90
15947;DHT22;8072;52.554;7.966;2022-10-26T11:23:12;18.40;99.90
15947;DHT22;8072;52.554;7.966;2022-10-26T11:25:52;18.70;99.90
15947;DHT22;8072;52.554;7.966;2022-10-26T11:31:14;19.00;99.90
15947;DHT22;8072;52.554;7.966;2022-10-26T11:33:45;19.10;99.90
15947;DHT22;8072;52.554;7.966;2022-10-26T11:36:16;19.20;99.90
15947;DHT22;8072;52.554;7.966;2022-10-26T11:41:40;19.30;99.90
15947;DHT22;8072;52.554;7.966;2022-10-26T11:44:25;19.50;99.90
15947;DHT22;8072;52.554;7.966;2022-10-26T11:47:05;19.50;99.90
15947;DHT22;8072;52.554;7.966;2022-10-26T11:49:54;19.50;99.90
15947;DHT22;8072;52.554;7.966;2022-10-26T11:52:28;19.70;99.90
15947;DHT22;8072;52.554;7.966;2022-10-26T11:54:58;19.70;99.90
15947;DHT22;8072;52.554;7.966;2022-10-26T11:57:32;19.80;99.90
15947;DHT22;8072;52.554;7.966;2022-10-26T12:02:55;20.00;99.90
15947;DHT22;8072;52.554;7.966;2022-10-26T12:05:49;20.00;99.90
15947;DHT22;8072;52.554;7.966;2022-10-26T12:08:37;19.90;99.90
15947;DHT22;8072;52.554;7.966;2022-10-26T12:14:24;20.00;99.90
15947;DHT22;8072;52.554;7.966;2022-10-26T12:17:12;19.90;99.90
15947;DHT22;8072;52.554;7.966;2022-10-26T12:20:26;20.00;99.90
15947;DHT22;8072;52.554;7.966;2022-10-26T12:22:59;20.00;99.90
15947;DHT22;8072;52.554;7.966;2022-10-26T12:25:27;20.10;99.90
15947;DHT22;8072;52.554;7.966;2022-10-26T12:27:55;20.20;99.90
15947;DHT22;8072;52.554;7.966;2022-10-26T12:35:41;20.30;99.90
15947;DHT22;8072;52.554;7.966;2022-10-26T12:39:00;20.40;99.90
15947;DHT22;8072;52.554;7.966;2022-10-26T12:41:21;20.40;99.90
15947;DHT22;8072;52.554;7.966;2022-10-26T12:43:47;20.50;99.90
15947;DHT22;8072;52.554;7.966;2022-10-26T12:57:13;20.40;99.90
15947;DHT22;8072;52.554;7.966;2022-10-26T13:00:01;20.40;99.90
15947;DHT22;8072;52.554;7.966;2022-10-26T13:08:09;19.80;99.90
15947;DHT22;8072;52.554;7.966;2022-10-26T13:10:38;19.80;99.90
15947;DHT22;8072;52.554;7.966;2022-10-26T13:13:06;19.80;99.90
15947;DHT22;8072;52.554;7.966;2022-10-26T13:15:39;19.90;99.90
15947;DHT22;8072;52.554;7.966;2022-10-26T13:18:13;20.00;99.90
15947;DHT22;8072;52.554;7.966;2022-10-26T13:23:29;20.00;99.90
15947;DHT22;8072;52.554;7.966;2022-10-26T13:31:02;20.10;99.90
15947;DHT22;8072;52.554;7.966;2022-10-26T13:33:36;20.10;99.90
15947;DHT22;8072;52.554;7.966;2022-10-26T13:38:44;20.10;99.90
15947;DHT22;8072;52.554;7.966;2022-10-26T13:41:34;20.10;99.90
15947;DHT22;8072;52.554;7.966;2022-10-26T13:44:21;20.10;99.90
15947;DHT22;8072;52.554;7.966;2022-10-26T13:46:52;20.10;99.90
15947;DHT22;8072;52.554;7.966;2022-10-26T13:49:30;20.10;99.90
15947;DHT22;8072;52.554;7.966;2022-10-26T13:52:00;20.10;99.90
15947;DHT22;8072;52.554;7.966;2022-10-26T13:55:00;20.10;99.90
15947;DHT22;8072;52.554;7.966;2022-10-26T13:57:35;20.00;99.90
15947;DHT22;8072;52.554;7.966;2022-10-26T14:00:28;20.00;99.90
15947;DHT22;8072;52.554;7.966;2022-10-26T14:02:54;19.90;99.90
15947;DHT22;8072;52.554;7.966;2022-10-26T14:05:21;19.80;99.90
15947;DHT22;8072;52.554;7.966;2022-10-26T14:07:55;19.70;99.90
15947;DHT22;8072;52.554;7.966;2022-10-26T14:12:56;19.70;99.90
15947;DHT22;8072;52.554;7.966;2022-10-26T14:15:32;19.60;99.90
15947;DHT22;8072;52.554;7.966;2022-10-26T14:18:00;19.50;99.90
15947;DHT22;8072;52.554;7.966;2022-10-26T14:20:28;19.50;99.90
15947;DHT22;8072;52.554;7.966;2022-10-26T14:22:54;19.40;99.90
15947;DHT22;8072;52.554;7.966;2022-10-26T14:25:25;19.40;99.90
15947;DHT22;8072;52.554;7.966;2022-10-26T14:27:51;19.50;99.90
15947;DHT22;8072;52.554;7.966;2022-10-26T14:32:46;19.50;99.90
15947;DHT22;8072;52.554;7.966;2022-10-26T14:35:13;19.50;99.90
15947;DHT22;8072;52.554;7.966;2022-10-26T14:37:44;19.40;99.90
15947;DHT22;8072;52.554;7.966;2022-10-26T14:40:20;19.40;99.90
15947;DHT22;8072;52.554;7.966;2022-10-26T14:42:50;19.40;99.90
15947;DHT22;8072;52.554;7.966;2022-10-26T14:45:31;19.40;99.90
15947;DHT22;8072;52.554;7.966;2022-10-26T14:48:00;19.40;99.90
15947;DHT22;8072;52.554;7.966;2022-10-26T14:50:26;19.40;99.90
15947;DHT22;8072;52.554;7.966;2022-10-26T14:53:13;19.30;99.90
15947;DHT22;8072;52.554;7.966;2022-10-26T14:55:48;19.30;99.90
15947;DHT22;8072;52.554;7.966;2022-10-26T14:58:27;19.20;99.90
15947;DHT22;8072;52.554;7.966;2022-10-26T15:03:43;19.10;99.90
15947;DHT22;8072;52.554;7.966;2022-10-26T15:06:28;19.00;99.90
15947;DHT22;8072;52.554;7.966;2022-10-26T15:08:59;19.00;99.90
15947;DHT22;8072;52.554;7.966;2022-10-26T15:11:28;18.90;99.90
15947;DHT22;8072;52.554;7.966;2022-10-26T15:13:57;18.90;99.90
15947;DHT22;8072;52.554;7.966;2022-10-26T15:16:30;18.90;99.90
15947;DHT22;8072;52.554;7.966;2022-10-26T15:19:09;18.80;99.90
15947;DHT22;8072;52.554;7.966;2022-10-26T15:21:45;18.70;99.90
15947;DHT22;8072;52.554;7.966;2022-10-26T15:24:36;18.70;99.90
15947;DHT22;8072;52.554;7.966;2022-10-26T15:27:04;18.60;99.90
15947;DHT22;8072;52.554;7.966;2022-10-26T15:29:39;18.60;99.90
15947;DHT22;8072;52.554;7.966;2022-10-26T15:32:26;18.50;99.90
15947;DHT22;8072;52.554;7.966;2022-10-26T15:35:26;18.50;99.90
15947;DHT22;8072;52.554;7.966;2022-10-26T15:37:53;18.40;99.90
15947;DHT22;8072;52.554;7.966;2022-10-26T15:40:19;18.30;99.90
15947;DHT22;8072;52.554;7.966;2022-10-26T15:42:49;18.20;99.90
15947;DHT22;8072;52.554;7.966;2022-10-26T15:45:19;18.20;99.90
15947;DHT22;8072;52.554;7.966;2022-10-26T15:47:45;18.10;99.90
15947;DHT22;8072;52.554;7.966;2022-10-26T15:50:16;18.00;99.90
15947;DHT22;8072;52.554;7.966;2022-10-26T15:52:42;17.90;99.90
15947;DHT22;8072;52.554;7.966;2022-10-26T15:55:09;17.90;99.90
15947;DHT22;8072;52.554;7.966;2022-10-26T15:57:35;17.90;99.90
15947;DHT22;8072;52.554;7.966;2022-10-26T16:00:03;17.80;99.90
15947;DHT22;8072;52.554;7.966;2022-10-26T16:02:29;17.70;99.90
15947;DHT22;8072;52.554;7.966;2022-10-26T16:04:55;17.70;99.90
15947;DHT22;8072;52.554;7.966;2022-10-26T16:07:24;17.60;99.90
15947;DHT22;8072;52.554;7.966;2022-10-26T16:09:50;17.60;99.90
15947;DHT22;8072;52.554;7.966;2022-10-26T16:12:16;17.50;99.90
15947;DHT22;8072;52.554;7.966;2022-10-26T16:14:42;17.50;99.90
15947;DHT22;8072;52.554;7.966;2022-10-26T16:17:08;17.40;99.90
15947;DHT22;8072;52.554;7.966;2022-10-26T16:19:33;17.40;99.90
15947;DHT22;8072;52.554;7.966;2022-10-26T16:22:00;17.30;99.90
15947;DHT22;8072;52.554;7.966;2022-10-26T16:24:27;17.20;99.90
15947;DHT22;8072;52.554;7.966;2022-10-26T16:26:53;17.20;99.90
15947;DHT22;8072;52.554;7.966;2022-10-26T16:29:19;17.20;99.90
15947;DHT22;8072;52.554;7.966;2022-10-26T16:31:45;17.10;99.90
15947;DHT22;8072;52.554;7.966;2022-10-26T16:34:11;17.10;99.90
15947;DHT22;8072;52.554;7.966;2022-10-26T16:36:37;17.00;99.90
15947;DHT22;8072;52.554;7.966;2022-10-26T16:39:04;16.90;99.90
15947;DHT22;8072;52.554;7.966;2022-10-26T16:41:30;16.80;99.90
15947;DHT22;8072;52.554;7.966;2022-10-26T16:43:59;16.80;99.90
15947;DHT22;8072;52.554;7.966;2022-10-26T16:46:25;16.80;99.90
15947;DHT22;8072;52.554;7.966;2022-10-26T16:48:52;16.70;99.90
15947;DHT22;8072;52.554;7.966;2022-10-26T16:51:25;16.70;99.90
15947;DHT22;8072;52.554;7.966;2022-10-26T16:53:53;16.60;99.90
15947;DHT22;8072;52.554;7.966;2022-10-26T16:56:27;16.60;99.90
15947;DHT22;8072;52.554;7.966;2022-10-26T16:58:54;16.60;99.90
15947;DHT22;8072;52.554;7.966;2022-10-26T17:01:21;16.60;99.90
15947;DHT22;8072;52.554;7.966;2022-10-26T17:03:49;16.50;99.90
15947;DHT22;8072;52.554;7.966;2022-10-26T17:06:15;16.50;99.90
15947;DHT22;8072;52.554;7.966;2022-10-26T17:08:42;16.50;99.90
15947;DHT22;8072;52.554;7.966;2022-10-26T17:11:10;16.50;99.90
15947;DHT22;8072;52.554;7.966;2022-10-26T17:13:36;16.40;99.90
15947;DHT22;8072;52.554;7.966;2022-10-26T17:16:09;16.40;99.90
15947;DHT22;8072;52.554;7.966;2022-10-26T17:18:34;16.50;99.90
15947;DHT22;8072;52.554;7.966;2022-10-26T17:21:01;16.40;99.90
15947;DHT22;8072;52.554;7.966;2022-10-26T17:23:26;16.40;99.90
15947;DHT22;8072;52.554;7.966;2022-10-26T17:25:52;16.30;99.90
15947;DHT22;8072;52.554;7.966;2022-10-26T17:28:18;16.30;99.90
15947;DHT22;8072;52.554;7.966;2022-10-26T17:30:44;16.20;99.90
15947;DHT22;8072;52.554;7.966;2022-10-26T17:33:10;16.20;99.90
15947;DHT22;8072;52.554;7.966;2022-10-26T17:35:36;16.20;99.90
15947;DHT22;8072;52.554;7.966;2022-10-26T17:38:02;16.20;99.90
15947;DHT22;8072;52.554;7.966;2022-10-26T17:40:30;16.10;99.90
15947;DHT22;8072;52.554;7.966;2022-10-26T17:42:57;16.10;99.90
15947;DHT22;8072;52.554;7.966;2022-10-26T17:45:24;16.00;99.90
15947;DHT22;8072;52.554;7.966;2022-10-26T17:47:50;15.90;99.90
15947;DHT22;8072;52.554;7.966;2022-10-26T17:50:16;15.80;99.90
15947;DHT22;8072;52.554;7.966;2022-10-26T17:52:41;15.80;99.90
15947;DHT22;8072;52.554;7.966;2022-10-26T17:55:07;15.70;99.90
15947;DHT22;8072;52.554;7.966;2022-10-26T17:57:33;15.70;99.90
15947;DHT22;8072;52.554;7.966;2022-10-26T17:59:59;15.70;99.90
15947;DHT22;8072;52.554;7.966;2022-10-26T18:02:25;15.60;99.90
15947;DHT22;8072;52.554;7.966;2022-10-26T18:04:51;15.60;99.90
15947;DHT22;8072;52.554;7.966;2022-10-26T18:07:16;15.60;99.90
15947;DHT22;8072;52.554;7.966;2022-10-26T18:09:42;15.60;99.90
15947;DHT22;8072;52.554;7.966;2022-10-26T18:12:08;15.60;99.90
15947;DHT22;8072;52.554;7.966;2022-10-26T18:14:35;15.50;99.90
15947;DHT22;8072;52.554;7.966;2022-10-26T18:17:01;15.50;99.90
15947;DHT22;8072;52.554;7.966;2022-10-26T18:19:26;15.50;99.90
15947;DHT22;8072;52.554;7.966;2022-10-26T18:21:52;15.50;99.90
15947;DHT22;8072;52.554;7.966;2022-10-26T18:24:18;15.50;99.90
15947;DHT22;8072;52.554;7.966;2022-10-26T18:26:43;15.40;99.90
15947;DHT22;8072;52.554;7.966;2022-10-26T18:29:11;15.40;99.90
15947;DHT22;8072;52.554;7.966;2022-10-26T18:31:37;15.30;99.90
15947;DHT22;8072;52.554;7.966;2022-10-26T18:34:04;15.30;99.90
15947;DHT22;8072;52.554;7.966;2022-10-26T18:36:30;15.20;99.90